PWSweather.com
Personal Weather Stations
Station Observations
KWAGIGHA17
Gig Harbor, WA 98332

Gig Harbor, WA 98332

Lat: 47.35323, Lon: -122.58817

Elevation: 318

Station Type: Davis VP2 Wireless

http://www.gigharborweather.com

Latest ConditionsUpdated 8:20:12 PM PDT Friday, Jul 31, 2015
Currently Today's Max Today's Min Today's Average
Temperature 78.0°F25.6°C 92.0°F33.3°C 78.0°F25.6°C 86.0°F30.0°C
Dew Point 44.1°F6.7°C 48.7°F9.3°C 39.9°F4.4°C 43.4°F6.3°C
Winds Calm Calm 3.4 mph NE5.5 kmh NE - 0.4 mph 0.6 kmh
Wind Gusts -- 8.0 mph12.9 kmh - -
Humidity 30% 30% 19% 23%
Pressure 29.94 in1013.9 mb 29.96 in1014.6 mb 29.94 in1013.9 mb -
Hour Temp Dew Point Humidity Winds Wind Gusts Pressure Precip Precip Rate Daily Precip Total
08:20 PM 78.0°F25.6°C 44.1°F6.7°C 30% Calm Calm -- 29.94 in1013.9 mb - 0.00 in0.0 mm 0.00 in0.0 mm
08:10 PM 78.8°F26.0°C 43.8°F6.6°C 29% Calm Calm -- 29.94 in1013.9 mb - 0.00 in0.0 mm 0.00 in0.0 mm
08:00 PM 79.6°F26.4°C 43.6°F6.4°C 28% Calm Calm -- 29.94 in1013.9 mb - 0.00 in0.0 mm 0.00 in0.0 mm
07:50 PM 80.3°F26.8°C 43.3°F6.3°C 27% 0.1 mph N0.2 kmh N 1.0 mph1.6 kmh 29.94 in1013.9 mb - 0.00 in0.0 mm 0.00 in0.0 mm
07:40 PM 80.9°F27.2°C 43.8°F6.6°C 27% 0.4 mph N0.6 kmh N -- 29.94 in1013.9 mb - 0.00 in0.0 mm 0.00 in0.0 mm
07:30 PM 81.8°F27.7°C 42.5°F5.8°C 25% 0.3 mph NNE0.5 kmh NNE -- 29.94 in1013.9 mb - 0.00 in0.0 mm 0.00 in0.0 mm
07:20 PM 82.5°F28.1°C 43.2°F6.2°C 25% Calm Calm -- 29.94 in1013.9 mb - 0.00 in0.0 mm 0.00 in0.0 mm
07:10 PM 83.7°F28.7°C 42.0°F5.6°C 23% 0.4 mph NNE0.6 kmh NNE 5.0 mph8.0 kmh 29.94 in1013.9 mb - 0.00 in0.0 mm 0.00 in0.0 mm
07:00 PM 84.7°F29.3°C 41.7°F5.4°C 22% 1.3 mph NE2.1 kmh NE 6.0 mph9.7 kmh 29.94 in1013.9 mb - 0.00 in0.0 mm 0.00 in0.0 mm
06:50 PM 86.3°F30.2°C 41.7°F5.4°C 21% 0.3 mph NNE0.5 kmh NNE 1.0 mph1.6 kmh 29.94 in1013.9 mb - 0.00 in0.0 mm 0.00 in0.0 mm
06:40 PM 87.1°F30.6°C 39.9°F4.4°C 19% 0.3 mph SSW0.5 kmh SSW 3.0 mph4.8 kmh 29.94 in1013.9 mb - 0.00 in0.0 mm 0.00 in0.0 mm
06:30 PM 87.8°F31.0°C 41.7°F5.4°C 20% 3.4 mph NE5.5 kmh NE 7.0 mph11.3 kmh 29.94 in1013.9 mb - 0.00 in0.0 mm 0.00 in0.0 mm
06:20 PM 88.8°F31.6°C 41.2°F5.1°C 19% 1.7 mph NE2.7 kmh NE 8.0 mph12.9 kmh 29.94 in1013.9 mb - 0.00 in0.0 mm 0.00 in0.0 mm
06:10 PM 88.6°F31.4°C 42.4°F5.8°C 20% 0.1 mph ESE0.2 kmh ESE 1.0 mph1.6 kmh 29.94 in1013.9 mb - 0.00 in0.0 mm 0.00 in0.0 mm
06:00 PM 89.5°F31.9°C 41.8°F5.4°C 19% 0.1 mph ESE0.2 kmh ESE 2.0 mph3.2 kmh 29.94 in1013.9 mb - 0.00 in0.0 mm 0.00 in0.0 mm
05:50 PM 90.4°F32.4°C 43.9°F6.6°C 20% 0.5 mph NE0.8 kmh NE 2.0 mph3.2 kmh 29.95 in1014.2 mb - 0.00 in0.0 mm 0.00 in0.0 mm
05:40 PM 90.6°F32.6°C 44.0°F6.7°C 20% Calm Calm 1.0 mph1.6 kmh 29.95 in1014.2 mb - 0.00 in0.0 mm 0.00 in0.0 mm
05:30 PM 92.0°F33.3°C 45.2°F7.3°C 20% 0.3 mph E0.5 kmh E 1.0 mph1.6 kmh 29.95 in1014.2 mb - 0.00 in0.0 mm 0.00 in0.0 mm
05:20 PM 91.8°F33.2°C 48.7°F9.3°C 23% Calm Calm 1.0 mph1.6 kmh 29.95 in1014.2 mb - 0.00 in0.0 mm 0.00 in0.0 mm
05:10 PM 90.4°F32.4°C 46.4°F8.0°C 22% Calm Calm -- 29.96 in1014.6 mb - 0.00 in0.0 mm 0.00 in0.0 mm
05:00 PM 91.6°F33.1°C 46.1°F7.8°C 21% Calm Calm 1.0 mph1.6 kmh 29.96 in1014.6 mb - 0.00 in0.0 mm 0.00 in0.0 mm
04:50 PM 92.4°F33.6°C 46.8°F8.2°C 21% Calm Calm 1.0 mph1.6 kmh 29.96 in1014.6 mb - 0.00 in0.0 mm 0.00 in0.0 mm
04:40 PM 91.8°F33.2°C 47.5°F8.6°C 22% Calm Calm -- 29.97 in1014.9 mb - 0.00 in0.0 mm 0.00 in0.0 mm
04:30 PM 91.7°F33.2°C 47.4°F8.6°C 22% Calm Calm -- 29.97 in1014.9 mb - 0.00 in0.0 mm 0.00 in0.0 mm
04:20 PM 90.7°F32.6°C 47.8°F8.8°C 23% 0.1 mph S0.2 kmh S 1.0 mph1.6 kmh 29.97 in1014.9 mb - 0.00 in0.0 mm 0.00 in0.0 mm
04:10 PM 90.9°F32.7°C 46.8°F8.2°C 22% Calm Calm -- 29.98 in1015.2 mb - 0.00 in0.0 mm 0.00 in0.0 mm
04:00 PM 90.9°F32.7°C 46.8°F8.2°C 22% 0.1 mph S0.2 kmh S 1.0 mph1.6 kmh 29.98 in1015.2 mb - 0.00 in0.0 mm 0.00 in0.0 mm
03:50 PM 90.4°F32.4°C 47.6°F8.7°C 23% 1.5 mph S2.4 kmh S 4.0 mph6.4 kmh 29.99 in1015.6 mb - 0.00 in0.0 mm 0.00 in0.0 mm
03:40 PM 91.2°F32.9°C 45.8°F7.7°C 21% 0.8 mph SSE1.3 kmh SSE 4.0 mph6.4 kmh 29.99 in1015.6 mb - 0.00 in0.0 mm 0.00 in0.0 mm
03:30 PM 91.4°F33.0°C 47.2°F8.4°C 22% 0.2 mph ENE0.3 kmh ENE 1.0 mph1.6 kmh 29.99 in1015.6 mb - 0.00 in0.0 mm 0.00 in0.0 mm
03:20 PM 91.4°F33.0°C 47.2°F8.4°C 22% 0.1 mph S0.2 kmh S -- 30.00 in1015.9 mb - 0.00 in0.0 mm 0.00 in0.0 mm
03:10 PM 90.9°F32.7°C 45.5°F7.5°C 21% Calm Calm 1.0 mph1.6 kmh 30.00 in1015.9 mb - 0.00 in0.0 mm 0.00 in0.0 mm
03:00 PM 90.2°F32.3°C 45.0°F7.2°C 21% 0.8 mph SSE1.3 kmh SSE 4.0 mph6.4 kmh 30.00 in1015.9 mb - 0.00 in0.0 mm 0.00 in0.0 mm
02:50 PM 90.6°F32.6°C 47.7°F8.7°C 23% 1.6 mph SSE2.6 kmh SSE 5.0 mph8.0 kmh 30.00 in1015.9 mb - 0.00 in0.0 mm 0.00 in0.0 mm
02:40 PM 89.7°F32.1°C 45.8°F7.7°C 22% 0.1 mph S0.2 kmh S 1.0 mph1.6 kmh 30.00 in1015.9 mb - 0.00 in0.0 mm 0.00 in0.0 mm
02:30 PM 89.7°F32.1°C 47.0°F8.3°C 23% 0.2 mph S0.3 kmh S 1.0 mph1.6 kmh 30.01 in1016.3 mb - 0.00 in0.0 mm 0.00 in0.0 mm
02:20 PM 89.1°F31.7°C 48.7°F9.3°C 25% 0.6 mph SSE1.0 kmh SSE 1.0 mph1.6 kmh 30.01 in1016.3 mb - 0.00 in0.0 mm 0.00 in0.0 mm
02:10 PM 88.1°F31.2°C 47.9°F8.8°C 25% 0.2 mph S0.3 kmh S 1.0 mph1.6 kmh 30.01 in1016.3 mb - 0.00 in0.0 mm 0.00 in0.0 mm
02:00 PM 88.1°F31.2°C 48.9°F9.4°C 26% 0.4 mph S0.6 kmh S 4.0 mph6.4 kmh 30.02 in1016.6 mb - 0.00 in0.0 mm 0.00 in0.0 mm
01:50 PM 88.5°F31.4°C 51.2°F10.7°C 28% 2.2 mph SSW3.5 kmh SSW 4.0 mph6.4 kmh 30.02 in1016.6 mb - 0.00 in0.0 mm 0.00 in0.0 mm
01:40 PM 87.7°F30.9°C 48.6°F9.2°C 26% Calm Calm -- 30.02 in1016.6 mb - 0.00 in0.0 mm 0.00 in0.0 mm
01:30 PM 88.1°F31.2°C 50.0°F10.0°C 27% Calm Calm 1.0 mph1.6 kmh 30.02 in1016.6 mb - 0.00 in0.0 mm 0.00 in0.0 mm
01:20 PM 88.5°F31.4°C 50.2°F10.1°C 27% 0.2 mph S0.3 kmh S 4.0 mph6.4 kmh 30.03 in1016.9 mb - 0.00 in0.0 mm 0.00 in0.0 mm
01:10 PM 87.1°F30.6°C 48.0°F8.9°C 26% 0.1 mph E0.2 kmh E 1.0 mph1.6 kmh 30.03 in1016.9 mb - 0.00 in0.0 mm 0.00 in0.0 mm
01:00 PM 86.3°F30.2°C 49.4°F9.7°C 28% 0.4 mph SE0.6 kmh SE -- 30.03 in1016.9 mb - 0.00 in0.0 mm 0.00 in0.0 mm
12:50 PM 86.4°F30.2°C 51.3°F10.7°C 30% 0.4 mph SE0.6 kmh SE 5.0 mph8.0 kmh 30.03 in1016.9 mb - 0.00 in0.0 mm 0.00 in0.0 mm
12:40 PM 86.2°F30.1°C 52.0°F11.1°C 31% 0.1 mph E0.2 kmh E 1.0 mph1.6 kmh 30.03 in1016.9 mb - 0.00 in0.0 mm 0.00 in0.0 mm
12:30 PM 85.6°F29.8°C 50.6°F10.3°C 30% 1.0 mph SE1.6 kmh SE 5.0 mph8.0 kmh 30.04 in1017.3 mb - 0.00 in0.0 mm 0.00 in0.0 mm
12:20 PM 85.1°F29.5°C 52.0°F11.1°C 32% 0.2 mph SSE0.3 kmh SSE 2.0 mph3.2 kmh 30.04 in1017.3 mb - 0.00 in0.0 mm 0.00 in0.0 mm
12:10 PM 84.7°F29.3°C 53.2°F11.8°C 34% 0.1 mph SE0.2 kmh SE -- 30.04 in1017.3 mb - 0.00 in0.0 mm 0.00 in0.0 mm
12:00 PM 83.8°F28.8°C 51.6°F10.9°C 33% 0.1 mph SE0.2 kmh SE 1.0 mph1.6 kmh 30.05 in1017.6 mb - 0.00 in0.0 mm 0.00 in0.0 mm
11:50 AM 84.1°F28.9°C 50.2°F10.1°C 31% 0.2 mph NNW0.3 kmh NNW 1.0 mph1.6 kmh 30.05 in1017.6 mb - 0.00 in0.0 mm 0.00 in0.0 mm
11:40 AM 83.1°F28.4°C 49.3°F9.6°C 31% 2.6 mph SE4.2 kmh SE 4.0 mph6.4 kmh 30.05 in1017.6 mb - 0.00 in0.0 mm 0.00 in0.0 mm
11:30 AM 82.8°F28.2°C 53.1°F11.7°C 36% 0.2 mph NNE0.3 kmh NNE 3.0 mph4.8 kmh 30.05 in1017.6 mb - 0.00 in0.0 mm 0.00 in0.0 mm
11:20 AM 81.9°F27.7°C 51.6°F10.9°C 35% Calm Calm -- 30.05 in1017.6 mb - 0.00 in0.0 mm 0.00 in0.0 mm
11:10 AM 80.9°F27.2°C 52.1°F11.2°C 37% Calm Calm -- 30.05 in1017.6 mb - 0.00 in0.0 mm 0.00 in0.0 mm
11:00 AM 79.7°F26.5°C 51.8°F11.0°C 38% Calm Calm -- 30.06 in1017.9 mb - 0.00 in0.0 mm 0.00 in0.0 mm
10:50 AM 78.3°F25.7°C 52.0°F11.1°C 40% Calm Calm 1.0 mph1.6 kmh 30.06 in1017.9 mb - 0.00 in0.0 mm 0.00 in0.0 mm
10:40 AM 76.6°F24.8°C 51.1°F10.6°C 41% Calm Calm 1.0 mph1.6 kmh 30.06 in1017.9 mb - 0.00 in0.0 mm 0.00 in0.0 mm
10:30 AM 75.3°F24.1°C 50.6°F10.3°C 42% Calm Calm -- 30.06 in1017.9 mb - 0.00 in0.0 mm 0.00 in0.0 mm
10:20 AM 74.3°F23.5°C 52.7°F11.5°C 47% Calm Calm -- 30.07 in1018.3 mb - 0.00 in0.0 mm 0.00 in0.0 mm
10:10 AM 73.0°F22.8°C 51.6°F10.9°C 47% Calm Calm 1.0 mph1.6 kmh 30.07 in1018.3 mb - 0.00 in0.0 mm 0.00 in0.0 mm
10:00 AM 71.7°F22.1°C 53.1°F11.7°C 52% Calm Calm -- 30.07 in1018.3 mb - 0.00 in0.0 mm 0.00 in0.0 mm
09:50 AM 71.1°F21.7°C 54.6°F12.6°C 56% Calm Calm -- 30.07 in1018.3 mb - 0.00 in0.0 mm 0.00 in0.0 mm
09:40 AM 70.9°F21.6°C 53.4°F11.9°C 54% Calm Calm -- 30.07 in1018.3 mb - 0.00 in0.0 mm 0.00 in0.0 mm
09:30 AM 69.9°F21.1°C 53.0°F11.7°C 55% Calm Calm -- 30.07 in1018.3 mb - 0.00 in0.0 mm 0.00 in0.0 mm
09:20 AM 68.7°F20.4°C 53.3°F11.8°C 58% Calm Calm 1.0 mph1.6 kmh 30.07 in1018.3 mb - 0.00 in0.0 mm 0.00 in0.0 mm
09:10 AM 67.8°F19.9°C 53.4°F11.9°C 60% Calm Calm 1.0 mph1.6 kmh 30.07 in1018.3 mb - 0.00 in0.0 mm 0.00 in0.0 mm
09:00 AM 66.8°F19.3°C 52.9°F11.6°C 61% Calm Calm -- 30.07 in1018.3 mb - 0.00 in0.0 mm 0.00 in0.0 mm
08:50 AM 66.3°F19.1°C 52.9°F11.6°C 62% Calm Calm -- 30.07 in1018.3 mb - 0.00 in0.0 mm 0.00 in0.0 mm
08:40 AM 65.8°F18.8°C 52.8°F11.6°C 63% Calm Calm -- 30.07 in1018.3 mb - 0.00 in0.0 mm 0.00 in0.0 mm
08:30 AM 65.0°F18.3°C 52.5°F11.4°C 64% Calm Calm -- 30.07 in1018.3 mb - 0.00 in0.0 mm 0.00 in0.0 mm
08:20 AM 64.4°F18.0°C 52.4°F11.3°C 65% Calm Calm -- 30.07 in1018.3 mb - 0.00 in0.0 mm 0.00 in0.0 mm
08:10 AM 63.9°F17.7°C 51.9°F11.1°C 65% Calm Calm -- 30.07 in1018.3 mb - 0.00 in0.0 mm 0.00 in0.0 mm
08:00 AM 63.4°F17.4°C 52.2°F11.2°C 67% Calm Calm -- 30.07 in1018.3 mb - 0.00 in0.0 mm 0.00 in0.0 mm
07:50 AM 62.7°F17.1°C 51.6°F10.9°C 67% Calm Calm -- 30.07 in1018.3 mb - 0.00 in0.0 mm 0.00 in0.0 mm
07:40 AM 61.6°F16.4°C 51.3°F10.7°C 69% Calm Calm 1.0 mph1.6 kmh 30.06 in1017.9 mb - 0.00 in0.0 mm 0.00 in0.0 mm
07:30 AM 60.8°F16.0°C 50.5°F10.3°C 69% Calm Calm -- 30.06 in1017.9 mb - 0.00 in0.0 mm 0.00 in0.0 mm
07:20 AM 60.1°F15.6°C 49.9°F9.9°C 69% Calm Calm -- 30.06 in1017.9 mb - 0.00 in0.0 mm 0.00 in0.0 mm
07:10 AM 59.5°F15.3°C 49.3°F9.6°C 69% Calm Calm -- 30.06 in1017.9 mb - 0.00 in0.0 mm 0.00 in0.0 mm
07:00 AM 58.9°F14.9°C 49.1°F9.5°C 70% Calm Calm -- 30.06 in1017.9 mb - 0.00 in0.0 mm 0.00 in0.0 mm
06:50 AM 58.7°F14.8°C 48.6°F9.2°C 69% Calm Calm -- 30.05 in1017.6 mb - 0.00 in0.0 mm 0.00 in0.0 mm
06:40 AM 58.7°F14.8°C 48.2°F9.0°C 68% Calm Calm -- 30.05 in1017.6 mb - 0.00 in0.0 mm 0.00 in0.0 mm
06:30 AM 58.5°F14.7°C 48.4°F9.1°C 69% Calm Calm -- 30.05 in1017.6 mb - 0.00 in0.0 mm 0.00 in0.0 mm
06:20 AM 58.4°F14.7°C 47.5°F8.6°C 67% Calm Calm -- 30.04 in1017.3 mb - 0.00 in0.0 mm 0.00 in0.0 mm
06:10 AM 58.7°F14.8°C 47.8°F8.8°C 67% Calm Calm -- 30.04 in1017.3 mb - 0.00 in0.0 mm 0.00 in0.0 mm
06:00 AM 59.3°F15.2°C 47.9°F8.8°C 66% Calm Calm -- 30.04 in1017.3 mb - 0.00 in0.0 mm 0.00 in0.0 mm
05:50 AM 59.7°F15.4°C 47.9°F8.8°C 65% Calm Calm -- 30.03 in1016.9 mb - 0.00 in0.0 mm 0.00 in0.0 mm
05:40 AM 60.1°F15.6°C 48.3°F9.1°C 65% Calm Calm -- 30.03 in1016.9 mb - 0.00 in0.0 mm 0.00 in0.0 mm
05:30 AM 60.2°F15.7°C 47.6°F8.7°C 63% Calm Calm -- 30.03 in1016.9 mb - 0.00 in0.0 mm 0.00 in0.0 mm
05:20 AM 60.5°F15.8°C 48.2°F9.0°C 64% Calm Calm -- 30.03 in1016.9 mb - 0.00 in0.0 mm 0.00 in0.0 mm
05:10 AM 60.6°F15.9°C 48.4°F9.1°C 64% Calm Calm -- 30.03 in1016.9 mb - 0.00 in0.0 mm 0.00 in0.0 mm
05:00 AM 60.5°F15.8°C 48.3°F9.1°C 64% Calm Calm -- 30.03 in1016.9 mb - 0.00 in0.0 mm 0.00 in0.0 mm
04:50 AM 60.8°F16.0°C 48.5°F9.2°C 64% Calm Calm -- 30.03 in1016.9 mb - 0.00 in0.0 mm 0.00 in0.0 mm
04:40 AM 61.1°F16.2°C 48.4°F9.1°C 63% Calm Calm -- 30.03 in1016.9 mb - 0.00 in0.0 mm 0.00 in0.0 mm
04:30 AM 61.2°F16.2°C 48.5°F9.2°C 63% Calm Calm -- 30.03 in1016.9 mb - 0.00 in0.0 mm 0.00 in0.0 mm
04:20 AM 61.3°F16.3°C 48.6°F9.2°C 63% Calm Calm -- 30.03 in1016.9 mb - 0.00 in0.0 mm 0.00 in0.0 mm
04:10 AM 61.5°F16.4°C 48.4°F9.1°C 62% Calm Calm -- 30.03 in1016.9 mb - 0.00 in0.0 mm 0.00 in0.0 mm
04:00 AM 62.0°F16.7°C 48.8°F9.3°C 62% Calm Calm -- 30.03 in1016.9 mb - 0.00 in0.0 mm 0.00 in0.0 mm
03:50 AM 62.1°F16.7°C 48.5°F9.2°C 61% Calm Calm -- 30.03 in1016.9 mb - 0.00 in0.0 mm 0.00 in0.0 mm
03:40 AM 62.6°F17.0°C 48.9°F9.4°C 61% Calm Calm -- 30.03 in1016.9 mb - 0.00 in0.0 mm 0.00 in0.0 mm
03:30 AM 62.8°F17.1°C 48.7°F9.3°C 60% Calm Calm -- 30.03 in1016.9 mb - 0.00 in0.0 mm 0.00 in0.0 mm
03:20 AM 62.9°F17.2°C 48.8°F9.3°C 60% Calm Calm -- 30.03 in1016.9 mb - 0.00 in0.0 mm 0.00 in0.0 mm
03:10 AM 63.1°F17.3°C 49.0°F9.4°C 60% Calm Calm -- 30.02 in1016.6 mb - 0.00 in0.0 mm 0.00 in0.0 mm
03:00 AM 63.3°F17.4°C 48.7°F9.3°C 59% Calm Calm -- 30.02 in1016.6 mb - 0.00 in0.0 mm 0.00 in0.0 mm
02:50 AM 63.5°F17.5°C 48.9°F9.4°C 59% Calm Calm -- 30.02 in1016.6 mb - 0.00 in0.0 mm 0.00 in0.0 mm
02:40 AM 63.8°F17.7°C 48.8°F9.3°C 58% Calm Calm -- 30.02 in1016.6 mb - 0.00 in0.0 mm 0.00 in0.0 mm
02:30 AM 64.3°F17.9°C 48.3°F9.1°C 56% Calm Calm -- 30.02 in1016.6 mb - 0.00 in0.0 mm 0.00 in0.0 mm
02:20 AM 64.8°F18.2°C 48.2°F9.0°C 55% Calm Calm -- 30.02 in1016.6 mb - 0.00 in0.0 mm 0.00 in0.0 mm
02:10 AM 65.1°F18.4°C 48.0°F8.9°C 54% Calm Calm -- 30.02 in1016.6 mb - 0.00 in0.0 mm 0.00 in0.0 mm
02:00 AM 64.7°F18.2°C 48.2°F9.0°C 55% Calm Calm -- 30.02 in1016.6 mb - 0.00 in0.0 mm 0.00 in0.0 mm
01:50 AM 65.1°F18.4°C 49.0°F9.4°C 56% Calm Calm -- 30.02 in1016.6 mb - 0.00 in0.0 mm 0.00 in0.0 mm
01:40 AM 65.8°F18.8°C 48.7°F9.3°C 54% Calm Calm -- 30.02 in1016.6 mb - 0.00 in0.0 mm 0.00 in0.0 mm
01:30 AM 66.2°F19.0°C 47.5°F8.6°C 51% Calm Calm -- 30.02 in1016.6 mb - 0.00 in0.0 mm 0.00 in0.0 mm
01:20 AM 66.6°F19.2°C 47.9°F8.8°C 51% Calm Calm -- 30.02 in1016.6 mb - 0.00 in0.0 mm 0.00 in0.0 mm
01:10 AM 67.0°F19.4°C 47.2°F8.4°C 49% Calm Calm -- 30.01 in1016.3 mb - 0.00 in0.0 mm 0.00 in0.0 mm
01:00 AM 67.4°F19.7°C 47.0°F8.3°C 48% Calm Calm -- 30.01 in1016.3 mb - 0.00 in0.0 mm 0.00 in0.0 mm
12:50 AM 67.7°F19.8°C 47.3°F8.5°C 48% Calm Calm -- 30.01 in1016.3 mb - 0.00 in0.0 mm 0.00 in0.0 mm
12:40 AM 67.7°F19.8°C 46.8°F8.2°C 47% Calm Calm -- 30.01 in1016.3 mb - 0.00 in0.0 mm 0.00 in0.0 mm
12:30 AM 67.9°F19.9°C 46.9°F8.3°C 47% Calm Calm -- 30.01 in1016.3 mb - 0.00 in0.0 mm 0.00 in0.0 mm
12:20 AM 68.3°F20.2°C 47.3°F8.5°C 47% Calm Calm 1.0 mph1.6 kmh 30.01 in1016.3 mb - 0.00 in0.0 mm 0.00 in0.0 mm
12:10 AM 68.6°F20.3°C 47.6°F8.7°C 47% Calm Calm -- 30.01 in1016.3 mb - 0.00 in0.0 mm 0.00 in0.0 mm
12:00 AM 69.1°F20.6°C 47.4°F8.6°C 46% Calm Calm -- 30.01 in1016.3 mb - 0.00 in0.0 mm 0.00 in0.0 mm